Decoded Metar for PASM (SAINT MARYS in AK, USA) (IATA:KSM) | Meteo·Mobile Aviation Weather
aviador You're here:

PASM Decoded Metar

SAINT MARYS in AK, USA
Report Time2019-07-22 01:38:00
UTC Time2019-07-22 01:48:40
Flight Rules mvfr MVFR
Wind230° at 10 kt
W.Decomp.*RWY 24: 9.3 kt HW 3.7 kt LCW
RWY 17: 6.7 kt HW 7.4 kt RCW
Visibility9999 m
Phenomena:N/A
Clouds:Overcast 016 Hf
Expected CloudBase > 1,200 ft AGL from Temp-Dew spread
Ceiling1,600 ft
Temp15°C (ISA +1)
Dew Point12°C (82% RH)
AAT12.0°C
QNH1021 hPa
Density Alt292 ft
Elevation302 ft
Report Wrong Elevation
Raw Report
PASM 220138Z AUTO 23010KT 10SM OVC016 15/12 A3016 RMK AO2=

Extra information for PASM:More info

Metar Taf Metar & Taf Last 4 Metars F.Rules Stats Wind Profile Meteogram Temp Stats Airport Information Weather charts Add Link Nearby VenuesMetar ALERT Operation Metar Decoded Social comments

AIRNAV info for PASM